Richfield Springs, NY (13439)

2:41 PM EDT on May 05, 2015 (GMT -0400)
upstate NY | | Change Station
CLOSE
Current Station
Personal Weather Station
Location: Hartwick, NY
Elevation: 1352 ft
Nearby Weather Stations

Elev 1352 ft 42.76 °N, 75.03 °W | Updated 46 seconds ago

Partly Cloudy
Partly Cloudy
70.2 °F
Feels Like 77 °F
N
0.0
Wind Variable Wind from WSW
Gusts 6.0 mph

Today
High -- | Low -- °F
--% Chance of Precip.
Yesterday
High -- | Low -- °F
Precip. -- in
5:49 AM 8:04 PM
Full, 97% visible
Pressure 30.26 in
Visibility 10.0 miles
Clouds Clear
Heat Index 77 °F
Dew Point 44 °F
Humidity 39%
Rainfall 0.00 in
Snow Depth Not available.
UV 10 out of 12
Pollen 6.00 out of 12
Air Quality Not available.
Flu Activity Widespread
METAR KRME 051753Z 29005KT 10SM CLR 21/04 A3027 RMK AO2 SLP247 T02060044 10206 20139 58004

More Conditions Fewer Conditions

Pressure 30.26 in
Visibility 10.0 miles
Clouds Clear
Heat Index 77 °F
Dew Point 44 °F
Humidity 39%
Rainfall 0.00 in
Snow Depth Not available.
UV 10 out of 12
Pollen 6.00 out of 12
Air Quality Not available.
Flu Activity Widespread
METAR KRME 051753Z 29005KT 10SM CLR 21/04 A3027 RMK AO2 SLP247 T02060044 10206 20139 58004

More Conditions Fewer Conditions

10-Day Weather Forecast

Almanac

Astronomy

May. 05, 2015 Rise Set
Actual Time
Civil Twilight
Nautical Twilight
Astronomical Twilight
Moon
Length of Visible Light
Length of Day
Tomorrow will be .
, % of the Moon is Illuminated

Today's Extremes

State Highs State Lows

Community

WunderPhotos

Upload Photos

1,818,953 photos uploaded!

WunderBlogs® & News

Nearby

Air Quality

  Air Quality AQ Index Pollutant
Not available.

Snow Depth

Station Depth Elevation

Earthquake Activity

City Distance Mag. Time & Date
Minimum magnitude displayed is 2.5.

Coastal Water Temperatures

Place Temperature

Stations

Nearby Weather Stations

Station Location Temp. Windchill Dew Point Humidity Wind Precip. Elev Updated Type